Alex, Louisiana
Current Conditions -  °F | °C
As of 1:53 AM on Sunday 23 Nov 2014 (Local Time) from KAEX Reporting Station
Light Rain Light Rain  
Wind Chill: 64°   Ceiling: 800
Heat Index: 64°   Visibility: 9mi
Dew Point: 62°   Wind: 16mph
Humidity: 93%   Direction: 140°SE
Pressure: 29.73"   Gusts: NA
Location:  31.2081°N, 92.3683°W
Report Text: KAEX 230753Z 14014KT 9SM -RA OVC008 18/17 A2973 RMK AO2 SLP070 P0000 T01780167
Loading
Personal Weather Stations






























Interactive Weather Map New forecast layout! Learn more

10-Day Weather Forecast

Advertisements
Track Severe Weather on mobile